Terminal Aerodrome Forecast
Issued by NWS

Home | Current Version | Previous Version | Graphics & Text | Print | Product List | Glossary On
Versions: 1 2 3 4 5 6 7 8 9 10 11 12 13 14 15 16 17 18 19 20 21 22
000
FTUS43 KABR 231139
TAFPIR
TAF
KPIR 231139Z 2312/2412 22008KT P6SM BKN250 WS020/22035KT
     FM231400 15007KT P6SM BKN250
     FM231800 16012KT P6SM SCT250
     FM240300 13012KT P6SM BKN250 WS020/18035KT
     FM240400 13011KT P6SM BKN200
     FM240500 11010KT P6SM BKN200 WS020/19035KT
     FM240700 11011KT P6SM BKN200
     FM241100 20008KT P6SM BKN140=

USA.gov is the U.S. government's official web portal to all federal, state and local government web resources and services.